createdAt,value
2022-09-01T00:00:53.948Z,65.73
2022-09-01T00:05:58.390Z,65.98
2022-09-01T00:11:03.664Z,65.73
2022-09-01T00:16:07.879Z,65.47
2022-09-01T00:21:13.060Z,65.87
2022-09-01T00:26:18.713Z,66.25
2022-09-01T00:31:23.579Z,67.47
2022-09-01T00:36:29.701Z,67.90
2022-09-01T00:41:39.518Z,67.58
2022-09-01T00:46:49.690Z,69.54
2022-09-01T00:52:00.239Z,68.86
2022-09-01T00:57:06.631Z,68.20
2022-09-01T01:02:11.543Z,69.80
2022-09-01T01:07:16.626Z,69.51
2022-09-01T01:12:24.394Z,73.20
2022-09-01T01:17:28.409Z,75.07
2022-09-01T01:23:00.190Z,73.74
2022-09-01T01:28:10.135Z,74.39
2022-09-01T01:33:13.973Z,72.10
2022-09-01T01:38:23.176Z,72.41
2022-09-01T01:43:30.233Z,72.10
2022-09-01T01:48:34.945Z,70.78
2022-09-01T01:53:47.070Z,71.49
2022-09-01T01:58:56.408Z,72.48
2022-09-01T02:04:07.315Z,72.56
2022-09-01T02:09:11.966Z,71.68
2022-09-01T02:14:23.437Z,71.73
2022-09-01T02:19:27.394Z,72.54
2022-09-01T02:24:33.488Z,71.48
2022-09-01T02:29:42.269Z,70.91
2022-09-01T02:34:54.309Z,71.32
2022-09-01T02:39:58.998Z,71.20
2022-09-01T02:45:08.451Z,71.59
2022-09-01T02:50:17.456Z,72.44
2022-09-01T02:55:22.928Z,73.94
2022-09-01T03:00:31.706Z,73.81
2022-09-01T03:05:39.337Z,75.53
2022-09-01T03:10:46.900Z,76.77
2022-09-01T03:15:53.199Z,79.96
2022-09-01T03:20:58.028Z,82.33
2022-09-01T03:26:02.660Z,80.38
2022-09-01T03:31:09.260Z,83.50
2022-09-01T03:36:20.666Z,79.82
2022-09-01T03:41:31.076Z,76.91
2022-09-01T03:46:38.115Z,76.12
2022-09-01T03:51:44.624Z,75.83
2022-09-01T03:56:49.555Z,75.57
2022-09-01T04:01:57.619Z,76.25
2022-09-01T04:07:01.527Z,74.86
2022-09-01T04:12:09.190Z,76.14
2022-09-01T04:17:34.272Z,77.75
2022-09-01T04:22:39.314Z,77.98
2022-09-01T04:27:43.204Z,77.30
2022-09-01T04:32:48.661Z,76.58
2022-09-01T04:37:55.533Z,76.68
2022-09-01T04:42:59.322Z,77.13
2022-09-01T04:48:05.294Z,79.40
2022-09-01T04:53:12.418Z,80.98
2022-09-01T04:58:21.219Z,82.14
2022-09-01T05:03:58.340Z,82.74
2022-09-01T05:09:14.041Z,82.66
2022-09-01T05:14:37.449Z,81.94
2022-09-01T05:19:49.551Z,79.67
2022-09-01T05:24:55.084Z,78.14
2022-09-01T05:30:01.180Z,80.36
2022-09-01T05:35:10.024Z,80.88
2022-09-01T05:40:16.576Z,81.12
2022-09-01T05:45:24.021Z,78.94
2022-09-01T05:50:30.370Z,78.05
2022-09-01T05:55:38.000Z,77.27
2022-09-01T06:00:43.860Z,77.30
2022-09-01T06:05:53.042Z,76.61
2022-09-01T06:10:57.412Z,76.42
2022-09-01T06:16:04.401Z,77.07
2022-09-01T06:21:14.911Z,76.48
2022-09-01T06:26:20.300Z,76.63
2022-09-01T06:31:28.522Z,76.53
2022-09-01T06:36:37.072Z,76.03
2022-09-01T06:41:42.426Z,76.00
2022-09-01T06:46:48.677Z,75.28
2022-09-01T06:51:54.801Z,75.32
2022-09-01T06:58:03.533Z,75.16
2022-09-01T07:02:28.571Z,74.89
2022-09-01T07:08:05.396Z,74.58
2022-09-01T07:13:23.506Z,74.14
2022-09-01T07:18:31.840Z,73.88
2022-09-01T07:24:06.003Z,73.31
2022-09-01T07:29:07.662Z,72.35
2022-09-01T07:39:48.958Z,72.01
2022-09-01T07:45:29.048Z,71.55
2022-09-01T07:51:34.293Z,70.60
2022-09-01T07:56:13.549Z,69.70
2022-09-01T08:01:25.352Z,68.20
2022-09-01T08:06:41.528Z,65.42
2022-09-01T08:12:03.309Z,64.65
2022-09-01T08:17:17.732Z,64.95
2022-09-01T08:22:40.582Z,64.94
2022-09-01T08:28:02.148Z,64.56
2022-09-01T08:33:13.448Z,64.30
2022-09-01T08:38:20.589Z,63.82
2022-09-01T08:43:35.715Z,63.20
2022-09-01T08:54:29.368Z,62.47
2022-09-01T08:59:39.007Z,65.93
2022-09-01T09:05:15.598Z,65.04
2022-09-01T09:10:27.420Z,61.02
2022-09-01T09:15:41.693Z,61.35
2022-09-01T09:20:48.540Z,60.36
2022-09-01T09:25:51.989Z,61.14
2022-09-01T09:31:28.662Z,59.08
2022-09-01T09:36:36.329Z,57.92
2022-09-01T09:41:40.558Z,57.29
2022-09-01T09:46:47.403Z,55.51
2022-09-01T09:51:53.962Z,55.10
2022-09-01T09:57:13.322Z,55.13
2022-09-01T10:02:27.747Z,53.41
2022-09-01T10:07:35.949Z,53.27
2022-09-01T10:12:38.762Z,53.91
2022-09-01T10:17:45.304Z,53.40
2022-09-01T10:22:51.130Z,52.85
2022-09-01T10:27:58.369Z,52.61
2022-09-01T10:33:11.322Z,53.16
2022-09-01T10:38:24.990Z,51.42
2022-09-01T10:43:37.954Z,52.23
2022-09-01T10:48:55.707Z,50.83
2022-09-01T10:54:02.955Z,51.18
2022-09-01T11:05:05.288Z,52.18
2022-09-01T11:10:35.244Z,52.46
2022-09-01T11:15:42.143Z,50.01
2022-09-01T11:20:46.689Z,49.79
2022-09-01T11:31:31.145Z,50.41
2022-09-01T11:36:37.050Z,49.95
2022-09-01T11:41:57.429Z,49.04
2022-09-01T11:47:09.647Z,48.94
2022-09-01T11:52:18.921Z,51.38
2022-09-01T11:57:32.280Z,53.45
2022-09-01T12:02:37.827Z,51.44
2022-09-01T12:07:45.961Z,53.21
2022-09-01T12:12:50.188Z,51.96
2022-09-01T12:17:54.682Z,54.54
2022-09-01T12:22:58.134Z,52.60
2022-09-01T12:28:03.839Z,48.92
2022-09-01T12:33:23.901Z,50.85
2022-09-01T12:38:31.013Z,49.84
2022-09-01T12:43:38.778Z,50.00
2022-09-01T12:48:45.267Z,51.82
2022-09-01T12:53:53.613Z,51.30
2022-09-01T12:59:15.660Z,51.00
2022-09-01T13:04:33.923Z,49.35
2022-09-01T13:09:38.753Z,48.32
2022-09-01T13:14:43.822Z,48.80
2022-09-01T13:19:46.708Z,47.91
2022-09-01T13:24:49.999Z,47.00
2022-09-01T13:29:54.422Z,48.75
2022-09-01T13:34:57.099Z,47.88
2022-09-01T13:40:01.675Z,48.55
2022-09-01T13:45:07.481Z,48.32
2022-09-01T13:50:14.480Z,47.58
2022-09-01T13:55:20.661Z,46.62
2022-09-01T14:00:26.798Z,47.88
2022-09-01T14:05:31.981Z,47.77
2022-09-01T14:10:38.644Z,47.61
2022-09-01T14:15:44.525Z,48.82
2022-09-01T14:20:50.870Z,50.55
2022-09-01T14:25:54.117Z,48.57
2022-09-01T14:36:03.213Z,48.52
2022-09-01T14:41:06.082Z,47.07
2022-09-01T14:46:12.299Z,48.18
2022-09-01T14:51:23.678Z,48.77
2022-09-01T14:56:30.238Z,52.44
2022-09-01T15:01:37.627Z,51.21
2022-09-01T15:06:40.704Z,51.68
2022-09-01T15:11:44.187Z,54.47
2022-09-01T15:16:49.988Z,53.83
2022-09-01T15:21:52.611Z,59.47
2022-09-01T15:26:55.339Z,53.03
2022-09-01T15:31:59.574Z,52.10
2022-09-01T15:37:02.286Z,52.24
2022-09-01T15:42:08.231Z,58.79
2022-09-01T15:47:12.287Z,51.67
2022-09-01T15:52:15.234Z,52.08
2022-09-01T15:57:18.380Z,51.21
2022-09-01T16:02:27.631Z,52.61
2022-09-01T16:07:30.483Z,50.14
2022-09-01T16:12:35.720Z,52.79
2022-09-01T16:17:54.284Z,53.30
2022-09-01T16:22:59.744Z,50.04
2022-09-01T16:28:08.280Z,51.19
2022-09-01T16:33:19.853Z,54.26
2022-09-01T16:38:33.446Z,52.21
2022-09-01T16:43:44.998Z,52.25
2022-09-01T16:48:56.056Z,54.44
2022-09-01T16:54:13.617Z,58.09
2022-09-01T16:59:29.257Z,54.68
2022-09-01T17:04:42.842Z,54.24
2022-09-01T17:09:52.884Z,55.11
2022-09-01T17:14:59.456Z,53.74
2022-09-01T17:20:05.904Z,52.95
2022-09-01T17:25:13.736Z,51.47
2022-09-01T17:30:19.794Z,51.54
2022-09-01T17:35:37.356Z,52.34
2022-09-01T17:40:57.002Z,48.99
2022-09-01T17:46:08.425Z,50.60
2022-09-01T17:51:25.945Z,51.75
2022-09-01T17:56:43.504Z,56.50
2022-09-01T18:01:58.406Z,56.17
2022-09-01T18:07:09.050Z,53.97
2022-09-01T18:12:18.225Z,59.30
2022-09-01T18:17:31.362Z,61.27
2022-09-01T18:22:44.150Z,62.77
2022-09-01T18:27:48.123Z,56.70
2022-09-01T18:33:04.364Z,64.14
2022-09-01T18:38:20.126Z,59.50
2022-09-01T18:43:30.761Z,55.40
2022-09-01T18:48:50.752Z,63.05
2022-09-01T18:54:01.936Z,64.29
2022-09-01T18:59:20.083Z,57.83
2022-09-01T19:04:31.267Z,62.78
2022-09-01T19:09:43.294Z,64.82
2022-09-01T19:14:55.029Z,63.97
2022-09-01T19:20:05.458Z,58.79
2022-09-01T19:25:36.973Z,63.61
2022-09-01T19:30:52.735Z,61.49
2022-09-01T19:36:01.510Z,65.43
2022-09-01T19:41:19.266Z,62.55
2022-09-01T19:46:27.982Z,60.81
2022-09-01T19:51:34.414Z,62.41
2022-09-01T19:56:47.492Z,63.29
2022-09-01T20:01:57.755Z,60.81
2022-09-01T20:07:02.876Z,62.92
2022-09-01T20:12:18.115Z,62.33
2022-09-01T20:17:24.701Z,61.83
2022-09-01T20:22:33.744Z,62.09
2022-09-01T20:27:45.249Z,59.36
2022-09-01T20:32:54.187Z,60.89
2022-09-01T20:38:02.009Z,60.27
2022-09-01T20:43:14.674Z,60.69
2022-09-01T20:48:22.449Z,61.19
2022-09-01T20:53:52.012Z,59.03
2022-09-01T20:59:05.809Z,59.29
2022-09-01T21:04:39.093Z,59.58
2022-09-01T21:09:55.258Z,59.53
2022-09-01T21:15:12.031Z,59.77
2022-09-01T21:20:28.311Z,59.61
2022-09-01T21:25:30.932Z,59.94
2022-09-01T21:30:36.740Z,60.76
2022-09-01T21:35:39.633Z,60.99
2022-09-01T21:40:43.304Z,61.32
2022-09-01T21:45:47.967Z,61.61
2022-09-01T21:50:50.649Z,61.36
2022-09-01T21:55:53.419Z,61.14
2022-09-01T22:00:58.764Z,60.96
2022-09-01T22:06:01.561Z,60.91
2022-09-01T22:11:10.533Z,61.47
2022-09-01T22:16:19.718Z,60.83
2022-09-01T22:21:26.509Z,61.48
2022-09-01T22:26:31.798Z,61.29
2022-09-01T22:31:37.309Z,61.30
2022-09-01T22:36:42.811Z,60.96
2022-09-01T22:41:46.053Z,61.07
2022-09-01T22:46:52.984Z,61.20
2022-09-01T22:51:58.291Z,61.93
2022-09-01T22:57:02.103Z,61.84
2022-09-01T23:02:06.983Z,62.76
2022-09-01T23:07:10.313Z,62.35
2022-09-01T23:12:13.659Z,62.11
2022-09-01T23:17:18.943Z,62.61
2022-09-01T23:22:21.571Z,62.10
2022-09-01T23:27:24.448Z,61.96
2022-09-01T23:32:28.516Z,62.36
2022-09-01T23:37:31.327Z,62.23
2022-09-01T23:42:34.988Z,63.85
2022-09-01T23:47:38.976Z,65.03
2022-09-01T23:52:45.265Z,64.40
2022-09-01T23:57:48.032Z,64.31
